Transavia B738 at Amsterdam on Nov 28th 2017, lightning strike

Last Update: November 29, 2017 / 23:47:47 GMT/Zulu time

Bookmark this article
Incident Facts

Date of incident
Nov 28, 2017

Classification
Incident

Flight number
HV-6845

Aircraft Registration
PH-HXB

Aircraft Type
Boeing 737-800

ICAO Type Designator
B738

A Transavia Boeing 737-800, registration PH-HXB performing flight HV-6845 from Amsterdam (Netherlands) to Boa Vista (Cape Verde), was in the initial climb out of Amsterdam's runway 24 when the aircraft received a lightning strike prompting the crew to stop the climb at FL070 and return to Amsterdam for a safe landing on runway 27 about 30 minutes after departure.

A replacement Boeing 737-800 registration PH-HSJ reached Cape Verde with a delay of 3:45 hours.

The occurrence aircraft is still on the ground in Amsterdam about 39 hours after landing back.

Metars:
EHAM 280855Z 26014KT 8000 -SHRA SCT020CB SCT025 07/04 Q1004 RERAGS TEMPO 6000 SHRAGS=
COR EHAM 280825Z 27015KT 240V300 9999 -SHRA FEW020CB SCT025 05/02 Q1004 RETSRAGS TEMPO 6000 SHRAGS=
COR EHAM 280755Z 28013KT 240V320 5000 SHRA FEW015 SCT020CB 05/03 Q1004 RETSRA TEMPO 9999 NSW=
EHAM 280725Z 25014KT 8000 -TSRA SCT020CB SCT024 07/04 Q1003 TEMPO 28020G30KT 6000 SHRA=
EHAM 280655Z 26013KT 9999 VCSH FEW020CB SCT024 06/04 Q1003 TEMPO 28020G30KT 7000 -SHRA=
EHAM 280625Z 26016KT 240V300 9000 VCSH FEW020CB SCT024 06/04 Q1003 TEMPO 28020G30KT 7000 -SHRA=
COR EHAM 280555Z 26016KT 9999 FEW020CB SCT038 07/03 Q1003 TEMPO 29022G33KT 5000 SHRA=
EHAM 280525Z 26017KT 9999 FEW020CB SCT038 07/03 Q1003 TEMPO 28018G28KT 7000 -SHRA=
EHAM 280455Z 26014KT 9999 FEW025 07/03 Q1003 NOSIG=
Aircraft Registration Data
Registration mark
PH-HXB
Country of Registration
Netherlands
Date of Registration
Ailnghhqdihcnk Subscribe to unlock
Airworthyness Category
Legal Basis
Manufacturer
The Boeing Company
Aircraft Model / Type
737-800
ICAO Aircraft Type
B738
Year of Manufacture
Serial Number
Aircraft Address / Mode S Code (HEX)
Maximum Take off Mass (MTOM) [kg]
Engine Count
Engine
NeiAk m kmflbbAhAAfnkhAbgmidefelA f Subscribe to unlock
Engine Type
Incident Facts

Date of incident
Nov 28, 2017

Classification
Incident

Flight number
HV-6845

Aircraft Registration
PH-HXB

Aircraft Type
Boeing 737-800

ICAO Type Designator
B738

This article is published under license from Avherald.com. © of text by Avherald.com.
Article source

You can read 2 more free articles without a subscription.

Subscribe now and continue reading without any limits!

Are you a subscriber? Login
Subscribe

Read unlimited articles and receive our daily update briefing. Gain better insights into what is happening in commercial aviation safety.

Send tip

Support AeroInside by sending a small tip amount.

Related articles

Newest articles

Subscribe today

Are you researching aviation incidents? Get access to AeroInside Insights, unlimited read access and receive the daily newsletter.

Pick your plan and subscribe

Partner

Blockaviation logo

A new way to document and demonstrate airworthiness compliance and aircraft value. Find out more.

ELITE Logo

ELITE Simulation Solutions is a leading global provider of Flight Simulation Training Devices, IFR training software as well as flight controls and related services. Find out more.

Blue Altitude Logo

Your regulation partner, specialists in aviation safety and compliance; providing training, auditing, and consultancy services. Find out more.

AeroInside Blog
Popular aircraft
Airbus A320
Boeing 737-800
Boeing 737-800 MAX
Popular airlines
American Airlines
United
Delta
Air Canada
Lufthansa
British Airways